createdAt,value
2023-03-26T00:01:15.731Z,99739.19
2023-03-26T00:03:44.815Z,99740.28
2023-03-26T00:06:16.113Z,99747.25
2023-03-26T00:08:45.056Z,99736.41
2023-03-26T00:11:13.228Z,99734.22
2023-03-26T00:13:41.541Z,99732.84
2023-03-26T00:16:08.550Z,99731.31
2023-03-26T00:18:35.346Z,99731.84
2023-03-26T00:21:05.597Z,99737.28
2023-03-26T00:23:33.223Z,99730.47
2023-03-26T00:26:00.920Z,99726.03
2023-03-26T00:28:27.645Z,99733.28
2023-03-26T00:30:59.372Z,99724.34
2023-03-26T00:33:26.683Z,99721.16
2023-03-26T00:35:54.500Z,99721.41
2023-03-26T00:38:22.524Z,99712.06
2023-03-26T00:40:51.111Z,99719.13
2023-03-26T00:43:19.404Z,99719.66
2023-03-26T00:45:50.306Z,99708.44
2023-03-26T00:48:17.324Z,99706.66
2023-03-26T00:50:45.559Z,99704.31
2023-03-26T00:53:13.871Z,99707.25
2023-03-26T00:55:41.466Z,99704.94
2023-03-26T00:58:11.611Z,99710.28
2023-03-26T01:00:58.123Z,99715.06
2023-03-26T01:03:27.683Z,99709.53
2023-03-26T01:06:02.766Z,99707.47
2023-03-26T01:08:34.209Z,99703.63
2023-03-26T01:11:14.342Z,99705.00
2023-03-26T01:13:47.330Z,99703.84
2023-03-26T01:16:56.069Z,99702.47
2023-03-26T01:19:46.553Z,99707.84
2023-03-26T01:22:17.979Z,99701.25
2023-03-26T01:24:48.700Z,99701.94
2023-03-26T01:27:36.475Z,99696.44
2023-03-26T01:30:12.786Z,99689.22
2023-03-26T01:33:06.860Z,99705.22
2023-03-26T01:35:36.718Z,99696.72
2023-03-26T01:38:28.041Z,99696.38
2023-03-26T01:40:54.678Z,99690.72
2023-03-26T01:43:21.699Z,99692.00
2023-03-26T01:45:48.503Z,99685.75
2023-03-26T01:48:15.239Z,99678.78
2023-03-26T01:50:42.130Z,99673.97
2023-03-26T01:53:09.365Z,99663.50
2023-03-26T01:56:02.144Z,99658.47
2023-03-26T01:58:47.237Z,99662.94
2023-03-26T02:01:17.032Z,99668.31
2023-03-26T02:03:51.452Z,99663.81
2023-03-26T02:06:30.867Z,99656.81
2023-03-26T02:08:59.618Z,99666.81
2023-03-26T02:11:34.724Z,99654.38
2023-03-26T02:14:03.336Z,99660.88
2023-03-26T02:16:30.107Z,99662.59
2023-03-26T02:18:59.375Z,99646.88
2023-03-26T02:21:26.566Z,99655.06
2023-03-26T02:24:07.057Z,99660.06
2023-03-26T02:26:34.785Z,99658.38
2023-03-26T02:29:01.934Z,99655.06
2023-03-26T02:31:28.743Z,99651.06
2023-03-26T02:33:55.725Z,99655.66
2023-03-26T02:36:27.604Z,99651.72
2023-03-26T02:38:55.691Z,99653.25
2023-03-26T02:41:22.498Z,99657.81
2023-03-26T02:43:49.264Z,99647.97
2023-03-26T02:46:16.129Z,99650.28
2023-03-26T02:48:44.041Z,99637.56
2023-03-26T02:51:10.889Z,99631.97
2023-03-26T02:53:39.603Z,99630.78
2023-03-26T02:56:07.621Z,99637.91
2023-03-26T02:58:34.425Z,99619.88
2023-03-26T03:01:03.260Z,99622.50
2023-03-26T03:03:30.255Z,99622.94
2023-03-26T03:05:57.488Z,99619.38
2023-03-26T03:08:26.458Z,99622.13
2023-03-26T03:11:10.509Z,99619.53
2023-03-26T03:13:37.311Z,99622.66
2023-03-26T03:16:04.237Z,99628.50
2023-03-26T03:18:31.006Z,99624.13
2023-03-26T03:20:57.761Z,99624.00
2023-03-26T03:23:24.585Z,99619.44
2023-03-26T03:25:52.842Z,99616.72
2023-03-26T03:28:20.584Z,99611.66
2023-03-26T03:30:47.479Z,99619.84
2023-03-26T03:33:14.206Z,99614.78
2023-03-26T03:35:41.914Z,99597.16
2023-03-26T03:38:08.716Z,99603.84
2023-03-26T03:40:35.719Z,99603.56
2023-03-26T03:43:02.455Z,99620.38
2023-03-26T03:45:29.223Z,99607.81
2023-03-26T03:47:56.051Z,99611.88
2023-03-26T03:50:22.957Z,99598.75
2023-03-26T03:52:50.726Z,99619.47
2023-03-26T03:55:17.487Z,99607.16
2023-03-26T03:57:44.376Z,99607.69
2023-03-26T04:00:11.929Z,99602.47
2023-03-26T04:02:39.052Z,99607.25
2023-03-26T04:05:06.470Z,99597.50
2023-03-26T04:07:33.251Z,99603.75
2023-03-26T04:10:00.423Z,99606.06
2023-03-26T04:12:28.467Z,99604.00
2023-03-26T04:14:55.735Z,99592.91
2023-03-26T04:17:22.902Z,99590.28
2023-03-26T04:19:50.548Z,99595.22
2023-03-26T04:22:18.465Z,99603.03
2023-03-26T04:24:45.837Z,99595.94
2023-03-26T04:27:14.783Z,99593.88
2023-03-26T04:29:45.270Z,99599.59
2023-03-26T04:32:19.558Z,99594.22
2023-03-26T04:34:48.285Z,99586.81
2023-03-26T04:37:34.748Z,99586.88
2023-03-26T04:40:06.374Z,99580.41
2023-03-26T04:42:33.495Z,99591.88
2023-03-26T04:45:03.141Z,99567.78
2023-03-26T04:47:29.920Z,99572.47
2023-03-26T04:49:56.703Z,99572.81
2023-03-26T04:52:23.469Z,99571.88
2023-03-26T04:54:50.395Z,99572.59
2023-03-26T04:57:26.290Z,99578.97
2023-03-26T04:59:53.227Z,99571.66
2023-03-26T05:02:20.264Z,99572.69
2023-03-26T05:04:47.127Z,99570.59
2023-03-26T05:07:17.614Z,99565.56
2023-03-26T05:09:44.432Z,99572.47
2023-03-26T05:12:11.139Z,99576.75
2023-03-26T05:14:37.869Z,99565.69
2023-03-26T05:17:06.037Z,99577.00
2023-03-26T05:19:32.989Z,99574.13
2023-03-26T05:21:59.758Z,99578.06
2023-03-26T05:24:28.758Z,99575.00
2023-03-26T05:26:56.255Z,99576.94
2023-03-26T05:29:24.268Z,99582.03
2023-03-26T05:31:51.239Z,99577.19
2023-03-26T05:34:17.987Z,99575.72
2023-03-26T05:36:44.762Z,99582.09
2023-03-26T05:39:11.475Z,99589.31
2023-03-26T05:41:38.270Z,99587.50
2023-03-26T05:44:05.280Z,99579.34
2023-03-26T05:46:32.101Z,99590.28
2023-03-26T05:48:58.942Z,99584.91
2023-03-26T05:51:26.017Z,99583.28
2023-03-26T05:53:52.825Z,99580.84
2023-03-26T05:56:19.616Z,99583.47
2023-03-26T05:58:47.634Z,99586.25
2023-03-26T06:01:18.553Z,99585.25
2023-03-26T06:03:45.771Z,99586.88
2023-03-26T06:06:16.687Z,99586.13
2023-03-26T06:08:48.903Z,99585.88
2023-03-26T06:11:29.287Z,99580.69
2023-03-26T06:13:56.066Z,99580.84
2023-03-26T06:16:27.182Z,99581.75
2023-03-26T06:18:56.468Z,99586.94
2023-03-26T06:21:25.257Z,99578.03
2023-03-26T06:23:52.267Z,99581.75
2023-03-26T06:26:19.204Z,99578.22
2023-03-26T06:28:46.230Z,99571.06
2023-03-26T06:31:13.123Z,99579.41
2023-03-26T06:33:40.034Z,99579.75
2023-03-26T06:36:07.309Z,99583.94
2023-03-26T06:38:34.108Z,99583.63
2023-03-26T06:41:07.152Z,99581.22
2023-03-26T06:43:34.088Z,99584.66
2023-03-26T06:46:01.773Z,99584.28
2023-03-26T06:48:28.647Z,99576.06
2023-03-26T06:50:55.802Z,99587.16
2023-03-26T06:53:22.725Z,99590.59
2023-03-26T06:55:49.544Z,99591.72
2023-03-26T06:58:16.902Z,99587.91
2023-03-26T07:00:43.881Z,99588.44
2023-03-26T07:03:11.669Z,99582.22
2023-03-26T07:05:40.579Z,99594.34
2023-03-26T07:08:07.392Z,99592.06
2023-03-26T07:10:34.160Z,99599.78
2023-03-26T07:13:01.174Z,99594.03
2023-03-26T07:15:28.779Z,99593.69
2023-03-26T07:17:56.417Z,99594.44
2023-03-26T07:20:23.336Z,99595.88
2023-03-26T07:22:50.597Z,99603.47
2023-03-26T07:25:17.850Z,99601.94
2023-03-26T07:27:50.340Z,99590.63
2023-03-26T07:30:38.899Z,99605.00
2023-03-26T07:33:09.163Z,99603.38
2023-03-26T07:35:41.089Z,99609.09
2023-03-26T07:38:35.445Z,99611.88
2023-03-26T07:41:28.601Z,99603.47
2023-03-26T07:44:21.370Z,99610.78
2023-03-26T07:46:48.882Z,99613.25
2023-03-26T07:49:17.925Z,99607.81
2023-03-26T07:51:44.995Z,99609.41
2023-03-26T07:54:12.130Z,99610.47
2023-03-26T07:56:40.103Z,99613.31
2023-03-26T07:59:16.342Z,99614.28
2023-03-26T08:02:02.096Z,99615.25
2023-03-26T08:04:58.366Z,99613.84
2023-03-26T08:08:02.947Z,99616.84
2023-03-26T08:10:54.146Z,99617.84
2023-03-26T08:13:42.477Z,99618.44
2023-03-26T08:16:48.046Z,99623.13
2023-03-26T08:19:54.195Z,99621.75
2023-03-26T08:22:32.265Z,99622.31
2023-03-26T08:25:17.880Z,99630.56
2023-03-26T08:27:50.302Z,99628.81
2023-03-26T08:30:23.560Z,99626.59
2023-03-26T08:32:57.514Z,99619.34
2023-03-26T08:35:25.090Z,99618.31
2023-03-26T08:37:52.056Z,99616.03
2023-03-26T08:40:38.110Z,99612.31
2023-03-26T08:43:46.681Z,99620.19
2023-03-26T08:46:39.536Z,99622.66
2023-03-26T08:49:29.693Z,99620.63
2023-03-26T08:52:34.024Z,99620.56
2023-03-26T08:55:10.263Z,99625.25
2023-03-26T08:57:49.169Z,99625.19
2023-03-26T09:00:46.432Z,99627.13
2023-03-26T09:03:31.938Z,99620.75
2023-03-26T09:06:17.036Z,99617.06
2023-03-26T09:09:08.286Z,99620.78
2023-03-26T09:12:07.194Z,99615.75
2023-03-26T09:14:41.148Z,99618.50
2023-03-26T09:17:38.875Z,99619.81
2023-03-26T09:20:43.540Z,99621.91
2023-03-26T09:23:52.698Z,99624.66
2023-03-26T09:26:44.214Z,99621.16
2023-03-26T09:29:48.369Z,99631.88
2023-03-26T09:32:36.903Z,99635.72
2023-03-26T09:35:25.049Z,99623.09
2023-03-26T09:37:58.751Z,99623.66
2023-03-26T09:40:53.463Z,99633.69
2023-03-26T09:43:32.401Z,99639.91
2023-03-26T09:46:28.275Z,99647.66
2023-03-26T09:49:10.212Z,99641.94
2023-03-26T09:52:14.212Z,99649.13
2023-03-26T09:54:48.348Z,99656.91
2023-03-26T09:57:25.104Z,99655.53
2023-03-26T10:00:07.512Z,99644.88
2023-03-26T10:02:52.907Z,99653.94
2023-03-26T10:06:12.003Z,99668.66
2023-03-26T10:09:17.608Z,99661.56
2023-03-26T10:12:15.375Z,99668.00
2023-03-26T10:15:01.084Z,99670.31
2023-03-26T10:17:33.770Z,99671.16
2023-03-26T10:20:25.493Z,99647.13
2023-03-26T10:23:10.764Z,99655.63
2023-03-26T10:25:56.385Z,99657.28
2023-03-26T10:28:59.583Z,99655.28
2023-03-26T10:31:46.858Z,99653.53
2023-03-26T10:34:44.989Z,99653.41
2023-03-26T10:37:17.756Z,99669.09
2023-03-26T10:39:50.245Z,99657.72
2023-03-26T10:42:22.608Z,99658.06
2023-03-26T10:45:20.840Z,99655.22
2023-03-26T10:47:53.473Z,99657.47
2023-03-26T10:50:44.681Z,99645.41
2023-03-26T10:53:16.064Z,99648.22
2023-03-26T10:55:47.124Z,99642.97
2023-03-26T10:58:26.580Z,99644.72
2023-03-26T11:01:06.202Z,99644.50
2023-03-26T11:03:40.755Z,99645.91
2023-03-26T11:06:38.952Z,99647.69
2023-03-26T11:09:14.351Z,99654.06
2023-03-26T11:11:52.830Z,99655.19
2023-03-26T11:14:34.990Z,99675.94
2023-03-26T11:17:02.213Z,99660.13
2023-03-26T11:19:53.239Z,99658.91
2023-03-26T11:22:25.749Z,99676.75
2023-03-26T11:25:15.404Z,99671.16
2023-03-26T11:28:01.170Z,99694.03
2023-03-26T11:31:05.357Z,99692.41
2023-03-26T11:33:47.483Z,99696.25
2023-03-26T11:36:17.942Z,99682.69
2023-03-26T11:38:46.952Z,99678.75
2023-03-26T11:41:22.529Z,99665.09
2023-03-26T11:43:56.436Z,99669.78
2023-03-26T11:46:23.878Z,99654.13
2023-03-26T11:48:59.979Z,99661.16
2023-03-26T11:51:34.356Z,99648.59
2023-03-26T11:54:01.802Z,99665.19
2023-03-26T11:57:05.888Z,99660.25
2023-03-26T11:59:56.635Z,99647.09
2023-03-26T12:02:29.690Z,99661.97
2023-03-26T12:05:20.381Z,99670.88
2023-03-26T12:07:57.537Z,99671.41
2023-03-26T12:10:28.430Z,99676.38
2023-03-26T12:12:58.000Z,99670.38
2023-03-26T12:15:24.990Z,99669.25
2023-03-26T12:17:56.173Z,99667.38
2023-03-26T12:20:26.285Z,99668.50
2023-03-26T12:22:59.469Z,99671.25
2023-03-26T12:25:33.466Z,99666.47
2023-03-26T12:28:19.146Z,99682.25
2023-03-26T12:31:04.914Z,99692.59
2023-03-26T12:33:35.768Z,99687.31
2023-03-26T12:36:26.712Z,99699.84
2023-03-26T12:39:17.167Z,99693.22
2023-03-26T12:44:42.183Z,99700.03
2023-03-26T12:44:59.310Z,99704.91
2023-03-26T12:47:57.318Z,99700.41
2023-03-26T12:50:17.709Z,99697.94
2023-03-26T12:53:32.857Z,99702.44
2023-03-26T12:56:22.010Z,99692.84
2023-03-26T12:59:18.643Z,99698.97
2023-03-26T13:01:56.359Z,99703.56
2023-03-26T13:04:30.156Z,99690.88
2023-03-26T13:07:34.420Z,99691.75
2023-03-26T13:10:38.466Z,99706.28
2023-03-26T13:13:17.971Z,99727.25
2023-03-26T13:15:54.291Z,99729.94
2023-03-26T13:18:27.366Z,99746.31
2023-03-26T13:21:08.891Z,99741.16
2023-03-26T13:23:57.037Z,99751.72
2023-03-26T13:26:45.491Z,99754.53
2023-03-26T13:29:30.757Z,99750.03
2023-03-26T13:32:01.058Z,99742.84
2023-03-26T13:34:46.195Z,99758.91
2023-03-26T13:37:36.136Z,99755.31
2023-03-26T13:40:25.566Z,99737.53
2023-03-26T13:43:08.061Z,99739.63
2023-03-26T13:45:53.265Z,99737.22
2023-03-26T13:48:25.777Z,99733.31
2023-03-26T13:51:14.556Z,99726.91
2023-03-26T13:53:53.338Z,99726.97
2023-03-26T13:56:23.637Z,99724.50
2023-03-26T13:58:56.699Z,99741.25
2023-03-26T14:01:33.833Z,99741.84
2023-03-26T14:04:19.398Z,99736.38
2023-03-26T14:07:04.978Z,99728.97
2023-03-26T14:09:52.905Z,99734.19
2023-03-26T14:12:38.030Z,99722.72
2023-03-26T14:15:14.305Z,99724.03
2023-03-26T14:18:18.196Z,99730.75
2023-03-26T14:21:03.934Z,99725.50
2023-03-26T14:23:34.292Z,99716.91
2023-03-26T14:26:04.376Z,99719.78
2023-03-26T14:28:58.900Z,99729.63
2023-03-26T14:31:44.396Z,99717.22
2023-03-26T14:34:56.132Z,99709.16
2023-03-26T14:37:37.803Z,99715.63
2023-03-26T14:40:16.763Z,99713.16
2023-03-26T14:43:05.830Z,99719.13
2023-03-26T14:45:44.886Z,99713.22
2023-03-26T14:48:36.748Z,99712.38
2023-03-26T14:51:28.524Z,99715.69
2023-03-26T14:54:01.827Z,99717.47
2023-03-26T14:56:34.557Z,99718.88
2023-03-26T14:59:33.426Z,99724.34
2023-03-26T15:02:39.017Z,99728.09
2023-03-26T15:05:24.620Z,99728.16
2023-03-26T15:08:07.744Z,99729.19
2023-03-26T15:11:11.896Z,99731.03
2023-03-26T15:14:14.287Z,99722.09
2023-03-26T15:17:18.500Z,99743.19
2023-03-26T15:19:51.457Z,99753.19
2023-03-26T15:22:29.694Z,99748.53
2023-03-26T15:24:59.383Z,99747.09
2023-03-26T15:27:39.504Z,99748.25
2023-03-26T15:30:35.682Z,99753.09
2023-03-26T15:33:35.036Z,99763.53
2023-03-26T15:36:21.671Z,99759.06
2023-03-26T15:39:08.097Z,99764.06
2023-03-26T15:41:50.717Z,99764.09
2023-03-26T15:44:55.364Z,99762.47
2023-03-26T15:47:50.556Z,99762.69
2023-03-26T15:50:56.122Z,99763.28
2023-03-26T15:53:44.851Z,99770.25
2023-03-26T15:56:14.324Z,99782.81
2023-03-26T15:58:56.043Z,99779.63
2023-03-26T16:01:27.433Z,99781.59
2023-03-26T16:04:09.151Z,99789.59
2023-03-26T16:06:51.812Z,99786.41
2023-03-26T16:09:38.895Z,99794.19
2023-03-26T16:12:12.023Z,99803.75
2023-03-26T16:14:45.703Z,99808.00
2023-03-26T16:17:24.988Z,99803.88
2023-03-26T16:20:14.153Z,99818.41
2023-03-26T16:23:04.788Z,99825.09
2023-03-26T16:25:35.971Z,99829.63
2023-03-26T16:28:27.112Z,99827.03
2023-03-26T16:31:23.494Z,99823.66
2023-03-26T16:34:04.696Z,99821.75
2023-03-26T16:36:35.144Z,99844.53
2023-03-26T16:39:08.492Z,99840.00
2023-03-26T16:41:50.251Z,99837.94
2023-03-26T16:44:37.000Z,99826.34
2023-03-26T16:47:34.856Z,99840.25
2023-03-26T16:50:28.449Z,99837.00
2023-03-26T16:52:58.902Z,99848.78
2023-03-26T16:55:49.174Z,99838.88
2023-03-26T16:58:28.053Z,99854.44
2023-03-26T17:01:11.665Z,99863.09
2023-03-26T17:03:45.783Z,99861.03
2023-03-26T17:06:45.796Z,99873.31
2023-03-26T17:09:37.876Z,99881.97
2023-03-26T17:12:18.695Z,99869.28
2023-03-26T17:15:06.008Z,99877.63
2023-03-26T17:17:44.693Z,99882.69
2023-03-26T17:20:41.184Z,99868.13
2023-03-26T17:23:26.565Z,99881.25
2023-03-26T17:26:05.042Z,99868.41
2023-03-26T17:28:35.429Z,99879.94
2023-03-26T17:31:16.467Z,99888.47
2023-03-26T17:33:43.640Z,99894.34
2023-03-26T17:36:14.484Z,99894.38
2023-03-26T17:38:44.912Z,99912.69
2023-03-26T17:41:13.421Z,99914.06
2023-03-26T17:43:47.992Z,99907.09
2023-03-26T17:46:29.698Z,99914.28
2023-03-26T17:49:18.534Z,99913.72
2023-03-26T17:51:52.708Z,99931.28
2023-03-26T17:54:33.405Z,99922.47
2023-03-26T17:57:06.175Z,99926.09
2023-03-26T17:59:33.177Z,99940.44
2023-03-26T18:02:01.081Z,99938.28
2023-03-26T18:04:36.473Z,99924.00
2023-03-26T18:07:16.964Z,99944.44
2023-03-26T18:10:22.449Z,99941.91
2023-03-26T18:13:08.776Z,99941.13
2023-03-26T18:15:46.885Z,99947.63
2023-03-26T18:18:23.509Z,99939.97
2023-03-26T18:20:50.428Z,99940.47
2023-03-26T18:23:28.746Z,99944.13
2023-03-26T18:25:59.072Z,99931.66
2023-03-26T18:28:35.512Z,99941.41
2023-03-26T18:31:30.210Z,99942.56
2023-03-26T18:33:59.230Z,99936.78
2023-03-26T18:36:27.939Z,99937.91
2023-03-26T18:39:00.696Z,99938.34
2023-03-26T18:41:31.317Z,99933.66
2023-03-26T18:44:02.369Z,99936.19
2023-03-26T18:46:29.216Z,99931.75
2023-03-26T18:48:56.963Z,99928.00
2023-03-26T18:51:23.890Z,99923.69
2023-03-26T18:53:59.526Z,99922.63
2023-03-26T18:56:40.060Z,99922.66
2023-03-26T18:59:28.235Z,99927.50
2023-03-26T19:01:57.833Z,99934.25
2023-03-26T19:04:28.261Z,99922.97
2023-03-26T19:06:55.266Z,99917.69
2023-03-26T19:09:31.518Z,99914.88
2023-03-26T19:12:08.593Z,99913.22
2023-03-26T19:14:51.271Z,99916.91
2023-03-26T19:17:18.116Z,99917.72
2023-03-26T19:19:45.243Z,99911.25
2023-03-26T19:22:12.048Z,99916.88
2023-03-26T19:24:39.106Z,99915.59
2023-03-26T19:27:05.847Z,99917.00
2023-03-26T19:29:33.149Z,99919.09
2023-03-26T19:32:19.861Z,99920.50
2023-03-26T19:34:47.177Z,99924.97
2023-03-26T19:37:21.574Z,99918.50
2023-03-26T19:39:52.857Z,99906.88
2023-03-26T19:42:43.022Z,99913.00
2023-03-26T19:45:20.804Z,99910.19
2023-03-26T19:47:52.100Z,99910.19
2023-03-26T19:50:34.369Z,99904.41
2023-03-26T19:53:25.683Z,99904.31
2023-03-26T19:55:57.446Z,99899.34
2023-03-26T19:58:26.737Z,99899.91
2023-03-26T20:00:55.893Z,99899.38
2023-03-26T20:03:56.587Z,99904.50
2023-03-26T20:06:34.112Z,99896.66
2023-03-26T20:09:10.916Z,99886.53
2023-03-26T20:11:39.301Z,99875.97
2023-03-26T20:14:21.690Z,99887.28
2023-03-26T20:16:48.845Z,99872.97
2023-03-26T20:19:15.827Z,99869.59
2023-03-26T20:21:42.914Z,99862.97
2023-03-26T20:24:12.440Z,99863.63
2023-03-26T20:26:39.262Z,99866.22
2023-03-26T20:29:06.187Z,99869.38
2023-03-26T20:31:33.129Z,99866.38
2023-03-26T20:33:59.997Z,99860.94
2023-03-26T20:36:33.763Z,99858.91
2023-03-26T20:39:08.425Z,99863.84
2023-03-26T20:41:35.987Z,99855.09
2023-03-26T20:44:05.048Z,99851.81
2023-03-26T20:46:33.237Z,99857.81
2023-03-26T20:49:00.254Z,99869.03
2023-03-26T20:51:28.783Z,99862.16
2023-03-26T20:53:55.974Z,99858.28
2023-03-26T20:56:22.801Z,99863.00
2023-03-26T20:58:54.797Z,99861.25
2023-03-26T21:01:27.922Z,99862.44
2023-03-26T21:03:54.843Z,99860.97
2023-03-26T21:06:21.625Z,99855.63
2023-03-26T21:08:48.756Z,99862.41
2023-03-26T21:11:26.564Z,99861.81
2023-03-26T21:13:57.307Z,99864.97
2023-03-26T21:16:24.364Z,99860.28
2023-03-26T21:18:51.874Z,99864.19
2023-03-26T21:21:30.592Z,99860.06
2023-03-26T21:24:05.199Z,99855.59
2023-03-26T21:26:53.038Z,99860.19
2023-03-26T21:29:20.071Z,99858.66
2023-03-26T21:31:47.282Z,99855.22
2023-03-26T21:34:14.330Z,99853.09
2023-03-26T21:36:42.073Z,99867.66
2023-03-26T21:39:11.077Z,99866.91
2023-03-26T21:41:45.724Z,99871.66
2023-03-26T21:44:14.312Z,99863.78
2023-03-26T21:46:42.838Z,99861.44
2023-03-26T21:49:10.387Z,99865.59
2023-03-26T21:51:38.041Z,99866.19
2023-03-26T21:54:20.968Z,99861.50
2023-03-26T21:57:07.625Z,99867.34
2023-03-26T21:59:46.360Z,99871.22
2023-03-26T22:02:48.425Z,99866.38
2023-03-26T22:05:19.863Z,99872.09
2023-03-26T22:07:51.584Z,99877.13
2023-03-26T22:10:18.612Z,99882.94
2023-03-26T22:12:45.363Z,99873.47
2023-03-26T22:15:15.261Z,99888.88
2023-03-26T22:17:42.284Z,99884.44
2023-03-26T22:20:10.739Z,99884.66
2023-03-26T22:22:37.487Z,99888.09
2023-03-26T22:25:04.451Z,99886.78
2023-03-26T22:27:31.200Z,99890.41
2023-03-26T22:29:57.958Z,99890.81
2023-03-26T22:32:24.768Z,99889.38
2023-03-26T22:34:59.575Z,99882.53
2023-03-26T22:37:26.356Z,99888.84
2023-03-26T22:39:53.109Z,99897.06
2023-03-26T22:42:19.870Z,99898.44
2023-03-26T22:44:46.637Z,99906.94
2023-03-26T22:47:13.788Z,99905.88
2023-03-26T22:49:40.769Z,99905.47
2023-03-26T22:52:07.749Z,99900.28
2023-03-26T22:54:36.516Z,99909.34
2023-03-26T22:57:03.937Z,99912.34
2023-03-26T22:59:31.144Z,99908.69
2023-03-26T23:01:57.918Z,99902.53
2023-03-26T23:04:31.569Z,99898.97
2023-03-26T23:06:59.118Z,99898.84
2023-03-26T23:09:25.843Z,99904.47
2023-03-26T23:11:52.594Z,99902.69
2023-03-26T23:14:20.232Z,99900.78
2023-03-26T23:16:46.946Z,99895.59
2023-03-26T23:19:13.852Z,99893.41
2023-03-26T23:21:40.564Z,99907.63
2023-03-26T23:24:07.371Z,99905.72
2023-03-26T23:26:43.903Z,99904.09
2023-03-26T23:29:17.503Z,99904.09
2023-03-26T23:31:44.318Z,99900.53
2023-03-26T23:34:13.583Z,99901.88
2023-03-26T23:36:41.831Z,99900.88
2023-03-26T23:39:09.765Z,99913.63
2023-03-26T23:41:36.895Z,99913.72
2023-03-26T23:44:03.869Z,99908.38
2023-03-26T23:46:33.172Z,99919.44
2023-03-26T23:49:02.642Z,99927.09
2023-03-26T23:51:32.684Z,99915.59
2023-03-26T23:54:00.237Z,99926.25
2023-03-26T23:56:30.207Z,99930.44
2023-03-26T23:58:57.251Z,99938.41
